sensor_id;sensor_type;location;lat;lon;timestamp;P1;durP1;ratioP1;P2;durP2;ratioP2
36817;SDS011;22761;51.542;16.450;2022-07-06T00:02:03;3.77;;;3.47;;
36817;SDS011;22761;51.542;16.450;2022-07-06T00:04:30;4.33;;;3.37;;
36817;SDS011;22761;51.542;16.450;2022-07-06T00:06:57;6.12;;;3.87;;
36817;SDS011;22761;51.542;16.450;2022-07-06T00:09:24;5.42;;;3.62;;
36817;SDS011;22761;51.542;16.450;2022-07-06T00:11:54;4.62;;;3.30;;
36817;SDS011;22761;51.542;16.450;2022-07-06T00:14:22;4.47;;;3.47;;
36817;SDS011;22761;51.542;16.450;2022-07-06T00:16:49;7.35;;;3.55;;
36817;SDS011;22761;51.542;16.450;2022-07-06T00:19:15;4.70;;;3.02;;
36817;SDS011;22761;51.542;16.450;2022-07-06T00:21:42;4.50;;;3.40;;
36817;SDS011;22761;51.542;16.450;2022-07-06T00:24:09;6.55;;;2.90;;
36817;SDS011;22761;51.542;16.450;2022-07-06T00:26:36;6.03;;;3.40;;
36817;SDS011;22761;51.542;16.450;2022-07-06T00:29:03;3.72;;;3.02;;
36817;SDS011;22761;51.542;16.450;2022-07-06T00:31:31;6.33;;;4.12;;
36817;SDS011;22761;51.542;16.450;2022-07-06T00:33:58;4.05;;;3.42;;
36817;SDS011;22761;51.542;16.450;2022-07-06T00:36:25;6.47;;;3.60;;
36817;SDS011;22761;51.542;16.450;2022-07-06T00:38:52;4.37;;;3.17;;
36817;SDS011;22761;51.542;16.450;2022-07-06T00:41:19;4.47;;;3.77;;
36817;SDS011;22761;51.542;16.450;2022-07-06T00:43:49;5.33;;;3.17;;
36817;SDS011;22761;51.542;16.450;2022-07-06T00:46:25;4.67;;;3.25;;
36817;SDS011;22761;51.542;16.450;2022-07-06T00:48:59;8.15;;;3.83;;
36817;SDS011;22761;51.542;16.450;2022-07-06T00:51:32;8.28;;;3.58;;
36817;SDS011;22761;51.542;16.450;2022-07-06T00:54:02;5.80;;;3.58;;
36817;SDS011;22761;51.542;16.450;2022-07-06T00:56:29;5.00;;;3.83;;
36817;SDS011;22761;51.542;16.450;2022-07-06T00:58:58;5.78;;;3.67;;
36817;SDS011;22761;51.542;16.450;2022-07-06T01:01:28;5.85;;;3.65;;
36817;SDS011;22761;51.542;16.450;2022-07-06T01:03:55;4.92;;;3.42;;
36817;SDS011;22761;51.542;16.450;2022-07-06T01:06:22;10.05;;;4.08;;
36817;SDS011;22761;51.542;16.450;2022-07-06T01:08:49;6.75;;;4.10;;
36817;SDS011;22761;51.542;16.450;2022-07-06T01:11:17;6.25;;;4.12;;
36817;SDS011;22761;51.542;16.450;2022-07-06T01:13:46;8.45;;;4.22;;
36817;SDS011;22761;51.542;16.450;2022-07-06T01:16:15;8.33;;;3.90;;
36817;SDS011;22761;51.542;16.450;2022-07-06T01:18:43;6.95;;;4.10;;
36817;SDS011;22761;51.542;16.450;2022-07-06T01:21:15;5.65;;;3.70;;
36817;SDS011;22761;51.542;16.450;2022-07-06T01:23:45;5.58;;;4.22;;
36817;SDS011;22761;51.542;16.450;2022-07-06T01:26:18;5.40;;;4.15;;
36817;SDS011;22761;51.542;16.450;2022-07-06T01:28:45;5.95;;;3.70;;
36817;SDS011;22761;51.542;16.450;2022-07-06T01:31:15;6.97;;;4.40;;
36817;SDS011;22761;51.542;16.450;2022-07-06T01:33:46;6.47;;;3.87;;
36817;SDS011;22761;51.542;16.450;2022-07-06T01:36:14;5.85;;;3.75;;
36817;SDS011;22761;51.542;16.450;2022-07-06T01:38:47;6.08;;;4.30;;
36817;SDS011;22761;51.542;16.450;2022-07-06T01:41:18;8.35;;;3.80;;
36817;SDS011;22761;51.542;16.450;2022-07-06T01:43:46;4.85;;;3.62;;
36817;SDS011;22761;51.542;16.450;2022-07-06T01:46:14;6.75;;;3.90;;
36817;SDS011;22761;51.542;16.450;2022-07-06T01:48:46;7.03;;;3.98;;
36817;SDS011;22761;51.542;16.450;2022-07-06T01:51:13;5.50;;;4.00;;
36817;SDS011;22761;51.542;16.450;2022-07-06T01:53:42;6.53;;;3.90;;
36817;SDS011;22761;51.542;16.450;2022-07-06T01:56:10;5.85;;;3.85;;
36817;SDS011;22761;51.542;16.450;2022-07-06T01:58:38;6.67;;;3.95;;
36817;SDS011;22761;51.542;16.450;2022-07-06T02:01:11;5.80;;;4.00;;
36817;SDS011;22761;51.542;16.450;2022-07-06T02:03:42;8.33;;;4.03;;
36817;SDS011;22761;51.542;16.450;2022-07-06T02:06:09;6.47;;;3.83;;
36817;SDS011;22761;51.542;16.450;2022-07-06T02:08:39;6.00;;;4.37;;
36817;SDS011;22761;51.542;16.450;2022-07-06T02:11:08;7.10;;;4.03;;
36817;SDS011;22761;51.542;16.450;2022-07-06T02:13:37;13.50;;;4.35;;
36817;SDS011;22761;51.542;16.450;2022-07-06T02:16:07;7.65;;;4.40;;
36817;SDS011;22761;51.542;16.450;2022-07-06T02:18:35;6.67;;;4.25;;
36817;SDS011;22761;51.542;16.450;2022-07-06T02:21:03;8.40;;;4.60;;
36817;SDS011;22761;51.542;16.450;2022-07-06T02:23:31;6.30;;;4.28;;
36817;SDS011;22761;51.542;16.450;2022-07-06T02:25:58;6.40;;;4.15;;
36817;SDS011;22761;51.542;16.450;2022-07-06T02:28:25;6.97;;;4.12;;
36817;SDS011;22761;51.542;16.450;2022-07-06T02:30:53;6.80;;;4.30;;
36817;SDS011;22761;51.542;16.450;2022-07-06T02:33:20;6.05;;;4.17;;
36817;SDS011;22761;51.542;16.450;2022-07-06T02:35:47;6.70;;;4.10;;
36817;SDS011;22761;51.542;16.450;2022-07-06T02:38:14;6.25;;;4.40;;
36817;SDS011;22761;51.542;16.450;2022-07-06T02:40:41;5.75;;;4.30;;
36817;SDS011;22761;51.542;16.450;2022-07-06T02:43:09;7.28;;;4.83;;
36817;SDS011;22761;51.542;16.450;2022-07-06T02:45:37;8.90;;;3.92;;
36817;SDS011;22761;51.542;16.450;2022-07-06T02:48:05;8.10;;;4.10;;
36817;SDS011;22761;51.542;16.450;2022-07-06T02:50:32;6.65;;;4.50;;
36817;SDS011;22761;51.542;16.450;2022-07-06T02:52:59;9.15;;;4.35;;
36817;SDS011;22761;51.542;16.450;2022-07-06T02:55:28;9.83;;;4.28;;
36817;SDS011;22761;51.542;16.450;2022-07-06T02:57:55;9.13;;;4.90;;
36817;SDS011;22761;51.542;16.450;2022-07-06T03:00:22;10.23;;;5.50;;
36817;SDS011;22761;51.542;16.450;2022-07-06T03:02:49;9.18;;;4.80;;
36817;SDS011;22761;51.542;16.450;2022-07-06T03:05:16;19.37;;;5.33;;
36817;SDS011;22761;51.542;16.450;2022-07-06T03:07:43;12.50;;;5.15;;
36817;SDS011;22761;51.542;16.450;2022-07-06T03:10:10;6.12;;;4.58;;
36817;SDS011;22761;51.542;16.450;2022-07-06T03:12:38;10.72;;;5.33;;
36817;SDS011;22761;51.542;16.450;2022-07-06T03:15:05;11.08;;;4.90;;
36817;SDS011;22761;51.542;16.450;2022-07-06T03:17:36;6.03;;;4.30;;
36817;SDS011;22761;51.542;16.450;2022-07-06T03:20:05;11.68;;;4.80;;
36817;SDS011;22761;51.542;16.450;2022-07-06T03:22:32;7.05;;;4.62;;
36817;SDS011;22761;51.542;16.450;2022-07-06T03:25:00;6.40;;;4.67;;
36817;SDS011;22761;51.542;16.450;2022-07-06T03:27:28;5.65;;;4.25;;
36817;SDS011;22761;51.542;16.450;2022-07-06T03:29:55;7.35;;;4.42;;
36817;SDS011;22761;51.542;16.450;2022-07-06T03:32:22;6.78;;;4.65;;
36817;SDS011;22761;51.542;16.450;2022-07-06T03:34:50;6.53;;;4.60;;
36817;SDS011;22761;51.542;16.450;2022-07-06T03:37:17;6.20;;;4.80;;
36817;SDS011;22761;51.542;16.450;2022-07-06T03:39:44;7.80;;;4.47;;
36817;SDS011;22761;51.542;16.450;2022-07-06T03:42:11;8.53;;;5.40;;
36817;SDS011;22761;51.542;16.450;2022-07-06T03:44:39;5.00;;;4.50;;
36817;SDS011;22761;51.542;16.450;2022-07-06T03:47:06;5.80;;;4.45;;
36817;SDS011;22761;51.542;16.450;2022-07-06T03:49:33;7.85;;;4.08;;
36817;SDS011;22761;51.542;16.450;2022-07-06T03:52:01;5.08;;;4.00;;
36817;SDS011;22761;51.542;16.450;2022-07-06T03:54:31;5.80;;;3.87;;
36817;SDS011;22761;51.542;16.450;2022-07-06T03:56:58;5.97;;;3.67;;
36817;SDS011;22761;51.542;16.450;2022-07-06T03:59:25;7.37;;;4.08;;
36817;SDS011;22761;51.542;16.450;2022-07-06T04:01:54;3.87;;;3.45;;
36817;SDS011;22761;51.542;16.450;2022-07-06T04:04:21;7.03;;;3.52;;
36817;SDS011;22761;51.542;16.450;2022-07-06T04:06:48;4.35;;;3.35;;
36817;SDS011;22761;51.542;16.450;2022-07-06T04:09:15;4.37;;;3.25;;
36817;SDS011;22761;51.542;16.450;2022-07-06T04:11:42;3.90;;;3.50;;
36817;SDS011;22761;51.542;16.450;2022-07-06T04:14:09;4.60;;;3.67;;
36817;SDS011;22761;51.542;16.450;2022-07-06T04:16:37;7.05;;;3.90;;
36817;SDS011;22761;51.542;16.450;2022-07-06T04:19:04;3.87;;;3.27;;
36817;SDS011;22761;51.542;16.450;2022-07-06T04:21:32;6.80;;;3.65;;
36817;SDS011;22761;51.542;16.450;2022-07-06T04:23:59;8.03;;;3.55;;
36817;SDS011;22761;51.542;16.450;2022-07-06T04:26:26;4.03;;;3.58;;
36817;SDS011;22761;51.542;16.450;2022-07-06T04:28:54;7.75;;;3.77;;
36817;SDS011;22761;51.542;16.450;2022-07-06T04:31:22;7.10;;;3.90;;
36817;SDS011;22761;51.542;16.450;2022-07-06T04:33:49;4.80;;;3.67;;
36817;SDS011;22761;51.542;16.450;2022-07-06T04:36:17;6.50;;;3.80;;
36817;SDS011;22761;51.542;16.450;2022-07-06T04:38:45;6.58;;;4.08;;
36817;SDS011;22761;51.542;16.450;2022-07-06T04:41:14;9.10;;;4.53;;
36817;SDS011;22761;51.542;16.450;2022-07-06T04:43:41;8.45;;;4.53;;
36817;SDS011;22761;51.542;16.450;2022-07-06T04:46:11;6.20;;;5.05;;
36817;SDS011;22761;51.542;16.450;2022-07-06T04:48:39;7.58;;;5.33;;
36817;SDS011;22761;51.542;16.450;2022-07-06T04:51:08;6.70;;;4.90;;
36817;SDS011;22761;51.542;16.450;2022-07-06T04:53:35;6.78;;;4.85;;
36817;SDS011;22761;51.542;16.450;2022-07-06T04:56:03;10.03;;;4.58;;
36817;SDS011;22761;51.542;16.450;2022-07-06T04:58:30;7.05;;;5.17;;
36817;SDS011;22761;51.542;16.450;2022-07-06T05:00:57;8.90;;;4.92;;
36817;SDS011;22761;51.542;16.450;2022-07-06T05:03:24;6.97;;;4.80;;
36817;SDS011;22761;51.542;16.450;2022-07-06T05:05:52;6.65;;;4.72;;
36817;SDS011;22761;51.542;16.450;2022-07-06T05:08:19;5.30;;;4.30;;
36817;SDS011;22761;51.542;16.450;2022-07-06T05:10:47;9.45;;;5.15;;
36817;SDS011;22761;51.542;16.450;2022-07-06T05:13:15;10.60;;;5.53;;
36817;SDS011;22761;51.542;16.450;2022-07-06T05:15:43;8.95;;;4.53;;
36817;SDS011;22761;51.542;16.450;2022-07-06T05:18:10;5.72;;;5.17;;
36817;SDS011;22761;51.542;16.450;2022-07-06T05:20:39;7.47;;;4.70;;
36817;SDS011;22761;51.542;16.450;2022-07-06T05:23:06;5.92;;;4.75;;
36817;SDS011;22761;51.542;16.450;2022-07-06T05:25:33;5.80;;;4.95;;
36817;SDS011;22761;51.542;16.450;2022-07-06T05:28:02;5.78;;;4.58;;
36817;SDS011;22761;51.542;16.450;2022-07-06T05:30:29;6.30;;;4.72;;
36817;SDS011;22761;51.542;16.450;2022-07-06T05:32:56;5.97;;;4.72;;
36817;SDS011;22761;51.542;16.450;2022-07-06T05:35:23;5.33;;;4.50;;
36817;SDS011;22761;51.542;16.450;2022-07-06T05:37:50;7.65;;;4.97;;
36817;SDS011;22761;51.542;16.450;2022-07-06T05:40:18;6.75;;;4.83;;
36817;SDS011;22761;51.542;16.450;2022-07-06T05:42:45;5.87;;;4.65;;
36817;SDS011;22761;51.542;16.450;2022-07-06T05:45:12;5.05;;;4.62;;
36817;SDS011;22761;51.542;16.450;2022-07-06T05:47:41;5.42;;;4.85;;
36817;SDS011;22761;51.542;16.450;2022-07-06T05:50:28;5.70;;;4.65;;
36817;SDS011;22761;51.542;16.450;2022-07-06T05:53:00;7.65;;;5.10;;
36817;SDS011;22761;51.542;16.450;2022-07-06T05:55:30;4.53;;;4.12;;
36817;SDS011;22761;51.542;16.450;2022-07-06T05:58:01;4.37;;;3.70;;
36817;SDS011;22761;51.542;16.450;2022-07-06T06:00:29;6.05;;;3.55;;
36817;SDS011;22761;51.542;16.450;2022-07-06T06:02:58;4.45;;;3.47;;
36817;SDS011;22761;51.542;16.450;2022-07-06T06:05:25;4.72;;;3.77;;
36817;SDS011;22761;51.542;16.450;2022-07-06T06:07:54;5.15;;;3.52;;
36817;SDS011;22761;51.542;16.450;2022-07-06T06:10:23;4.90;;;3.27;;
36817;SDS011;22761;51.542;16.450;2022-07-06T06:12:52;4.20;;;3.80;;
36817;SDS011;22761;51.542;16.450;2022-07-06T06:15:19;5.22;;;3.72;;
36817;SDS011;22761;51.542;16.450;2022-07-06T06:17:46;5.35;;;4.22;;
36817;SDS011;22761;51.542;16.450;2022-07-06T06:20:13;4.20;;;3.60;;
36817;SDS011;22761;51.542;16.450;2022-07-06T06:22:52;7.40;;;3.52;;
36817;SDS011;22761;51.542;16.450;2022-07-06T06:25:26;5.10;;;3.77;;
36817;SDS011;22761;51.542;16.450;2022-07-06T06:28:01;5.95;;;3.87;;
36817;SDS011;22761;51.542;16.450;2022-07-06T06:30:29;6.42;;;4.25;;
36817;SDS011;22761;51.542;16.450;2022-07-06T06:35:44;8.50;;;3.95;;
36817;SDS011;22761;51.542;16.450;2022-07-06T06:38:18;5.50;;;4.08;;
36817;SDS011;22761;51.542;16.450;2022-07-06T06:40:48;5.62;;;4.42;;
36817;SDS011;22761;51.542;16.450;2022-07-06T06:43:15;6.42;;;3.85;;
36817;SDS011;22761;51.542;16.450;2022-07-06T06:45:52;5.60;;;4.00;;
36817;SDS011;22761;51.542;16.450;2022-07-06T06:48:20;6.85;;;4.10;;
36817;SDS011;22761;51.542;16.450;2022-07-06T06:50:47;6.45;;;4.10;;
36817;SDS011;22761;51.542;16.450;2022-07-06T06:53:14;6.40;;;4.00;;
36817;SDS011;22761;51.542;16.450;2022-07-06T06:55:41;5.10;;;4.35;;
36817;SDS011;22761;51.542;16.450;2022-07-06T06:58:08;6.40;;;5.28;;
36817;SDS011;22761;51.542;16.450;2022-07-06T07:00:35;7.60;;;4.85;;
36817;SDS011;22761;51.542;16.450;2022-07-06T07:03:03;9.98;;;4.87;;
36817;SDS011;22761;51.542;16.450;2022-07-06T07:05:30;5.62;;;4.80;;
36817;SDS011;22761;51.542;16.450;2022-07-06T07:07:57;7.00;;;5.25;;
36817;SDS011;22761;51.542;16.450;2022-07-06T07:10:25;7.35;;;5.45;;
36817;SDS011;22761;51.542;16.450;2022-07-06T07:12:52;8.08;;;5.80;;
36817;SDS011;22761;51.542;16.450;2022-07-06T07:15:20;8.98;;;5.40;;
36817;SDS011;22761;51.542;16.450;2022-07-06T07:17:47;8.48;;;5.40;;
36817;SDS011;22761;51.542;16.450;2022-07-06T07:20:14;12.63;;;5.70;;
36817;SDS011;22761;51.542;16.450;2022-07-06T07:22:41;7.80;;;5.05;;
36817;SDS011;22761;51.542;16.450;2022-07-06T07:25:08;6.00;;;5.33;;
36817;SDS011;22761;51.542;16.450;2022-07-06T07:27:35;9.58;;;5.47;;
36817;SDS011;22761;51.542;16.450;2022-07-06T07:30:03;6.17;;;5.15;;
36817;SDS011;22761;51.542;16.450;2022-07-06T07:32:31;8.73;;;5.47;;
36817;SDS011;22761;51.542;16.450;2022-07-06T07:34:59;7.22;;;5.17;;
36817;SDS011;22761;51.542;16.450;2022-07-06T07:37:27;8.45;;;5.55;;
36817;SDS011;22761;51.542;16.450;2022-07-06T07:39:54;8.00;;;6.10;;
36817;SDS011;22761;51.542;16.450;2022-07-06T07:42:21;8.23;;;5.47;;
36817;SDS011;22761;51.542;16.450;2022-07-06T07:44:48;9.20;;;5.78;;
36817;SDS011;22761;51.542;16.450;2022-07-06T07:47:15;8.30;;;5.37;;
36817;SDS011;22761;51.542;16.450;2022-07-06T07:49:42;8.88;;;5.40;;
36817;SDS011;22761;51.542;16.450;2022-07-06T07:52:09;7.87;;;6.00;;
36817;SDS011;22761;51.542;16.450;2022-07-06T07:54:37;5.47;;;4.72;;
36817;SDS011;22761;51.542;16.450;2022-07-06T07:57:04;9.20;;;5.10;;
36817;SDS011;22761;51.542;16.450;2022-07-06T07:59:31;6.92;;;4.80;;
36817;SDS011;22761;51.542;16.450;2022-07-06T08:01:58;9.48;;;5.05;;
36817;SDS011;22761;51.542;16.450;2022-07-06T08:04:25;9.18;;;4.37;;
36817;SDS011;22761;51.542;16.450;2022-07-06T08:06:52;5.45;;;3.92;;
36817;SDS011;22761;51.542;16.450;2022-07-06T08:09:19;5.28;;;4.10;;
36817;SDS011;22761;51.542;16.450;2022-07-06T08:11:46;6.83;;;4.10;;
36817;SDS011;22761;51.542;16.450;2022-07-06T08:14:13;8.30;;;3.87;;
36817;SDS011;22761;51.542;16.450;2022-07-06T08:16:40;4.22;;;3.35;;
36817;SDS011;22761;51.542;16.450;2022-07-06T08:19:07;4.85;;;3.15;;
36817;SDS011;22761;51.542;16.450;2022-07-06T08:21:35;5.80;;;2.92;;
36817;SDS011;22761;51.542;16.450;2022-07-06T08:24:02;6.00;;;3.75;;
36817;SDS011;22761;51.542;16.450;2022-07-06T08:26:29;7.92;;;2.65;;
36817;SDS011;22761;51.542;16.450;2022-07-06T08:28:56;5.03;;;2.62;;
36817;SDS011;22761;51.542;16.450;2022-07-06T08:31:23;4.95;;;2.40;;
36817;SDS011;22761;51.542;16.450;2022-07-06T08:33:50;1.75;;;1.60;;
36817;SDS011;22761;51.542;16.450;2022-07-06T08:36:19;4.15;;;1.80;;
36817;SDS011;22761;51.542;16.450;2022-07-06T08:38:47;6.15;;;2.02;;
36817;SDS011;22761;51.542;16.450;2022-07-06T08:41:15;3.67;;;1.92;;
36817;SDS011;22761;51.542;16.450;2022-07-06T08:43:44;2.35;;;1.50;;
36817;SDS011;22761;51.542;16.450;2022-07-06T08:46:11;4.08;;;1.70;;
36817;SDS011;22761;51.542;16.450;2022-07-06T08:48:40;3.30;;;2.00;;
36817;SDS011;22761;51.542;16.450;2022-07-06T08:51:08;7.22;;;2.10;;
36817;SDS011;22761;51.542;16.450;2022-07-06T08:53:44;4.15;;;1.60;;
36817;SDS011;22761;51.542;16.450;2022-07-06T08:56:09;3.20;;;1.90;;
36817;SDS011;22761;51.542;16.450;2022-07-06T08:58:37;3.58;;;1.62;;
36817;SDS011;22761;51.542;16.450;2022-07-06T09:01:06;4.23;;;1.97;;
36817;SDS011;22761;51.542;16.450;2022-07-06T09:03:35;2.75;;;2.15;;
36817;SDS011;22761;51.542;16.450;2022-07-06T09:06:05;4.10;;;1.90;;
36817;SDS011;22761;51.542;16.450;2022-07-06T09:08:34;6.65;;;1.80;;
36817;SDS011;22761;51.542;16.450;2022-07-06T09:11:03;3.42;;;1.40;;
36817;SDS011;22761;51.542;16.450;2022-07-06T09:13:30;12.58;;;1.95;;
36817;SDS011;22761;51.542;16.450;2022-07-06T09:16:08;4.70;;;1.42;;
36817;SDS011;22761;51.542;16.450;2022-07-06T09:18:41;3.70;;;1.22;;
36817;SDS011;22761;51.542;16.450;2022-07-06T09:21:27;2.20;;;1.27;;
36817;SDS011;22761;51.542;16.450;2022-07-06T09:26:21;3.83;;;1.20;;
36817;SDS011;22761;51.542;16.450;2022-07-06T09:28:49;3.22;;;1.70;;
36817;SDS011;22761;51.542;16.450;2022-07-06T09:31:17;8.63;;;1.50;;
36817;SDS011;22761;51.542;16.450;2022-07-06T09:33:55;2.35;;;1.10;;
36817;SDS011;22761;51.542;16.450;2022-07-06T09:36:46;2.90;;;1.17;;
36817;SDS011;22761;51.542;16.450;2022-07-06T09:39:16;5.62;;;1.20;;
36817;SDS011;22761;51.542;16.450;2022-07-06T09:44:27;4.20;;;1.30;;
36817;SDS011;22761;51.542;16.450;2022-07-06T09:46:58;3.58;;;1.10;;
36817;SDS011;22761;51.542;16.450;2022-07-06T09:49:27;4.92;;;1.35;;
36817;SDS011;22761;51.542;16.450;2022-07-06T09:51:56;3.02;;;1.20;;
36817;SDS011;22761;51.542;16.450;2022-07-06T09:54:26;2.40;;;1.10;;
36817;SDS011;22761;51.542;16.450;2022-07-06T09:56:54;5.00;;;1.47;;
36817;SDS011;22761;51.542;16.450;2022-07-06T09:59:24;2.35;;;1.10;;
36817;SDS011;22761;51.542;16.450;2022-07-06T10:01:54;2.22;;;1.10;;
36817;SDS011;22761;51.542;16.450;2022-07-06T10:04:23;2.70;;;0.90;;
36817;SDS011;22761;51.542;16.450;2022-07-06T10:06:53;2.65;;;1.00;;
36817;SDS011;22761;51.542;16.450;2022-07-06T10:09:23;4.58;;;1.15;;
36817;SDS011;22761;51.542;16.450;2022-07-06T10:11:58;3.65;;;1.20;;
36817;SDS011;22761;51.542;16.450;2022-07-06T10:14:27;4.47;;;1.27;;
36817;SDS011;22761;51.542;16.450;2022-07-06T10:16:57;5.05;;;0.90;;
36817;SDS011;22761;51.542;16.450;2022-07-06T10:19:28;3.85;;;0.68;;
36817;SDS011;22761;51.542;16.450;2022-07-06T10:21:58;1.98;;;0.70;;
36817;SDS011;22761;51.542;16.450;2022-07-06T10:24:28;3.80;;;1.00;;
36817;SDS011;22761;51.542;16.450;2022-07-06T10:26:56;3.55;;;0.60;;
36817;SDS011;22761;51.542;16.450;2022-07-06T10:29:24;5.50;;;1.00;;
36817;SDS011;22761;51.542;16.450;2022-07-06T10:31:52;2.77;;;0.85;;
36817;SDS011;22761;51.542;16.450;2022-07-06T10:34:20;2.50;;;0.88;;
36817;SDS011;22761;51.542;16.450;2022-07-06T10:36:51;4.67;;;1.00;;
36817;SDS011;22761;51.542;16.450;2022-07-06T10:39:36;8.18;;;1.25;;
36817;SDS011;22761;51.542;16.450;2022-07-06T10:45:12;3.90;;;1.00;;
36817;SDS011;22761;51.542;16.450;2022-07-06T10:47:41;2.77;;;0.95;;
36817;SDS011;22761;51.542;16.450;2022-07-06T10:50:10;3.12;;;1.10;;
36817;SDS011;22761;51.542;16.450;2022-07-06T10:52:48;2.62;;;1.00;;
36817;SDS011;22761;51.542;16.450;2022-07-06T10:55:31;1.57;;;0.88;;
36817;SDS011;22761;51.542;16.450;2022-07-06T10:58:03;3.05;;;0.70;;
36817;SDS011;22761;51.542;16.450;2022-07-06T11:00:50;2.20;;;0.70;;
36817;SDS011;22761;51.542;16.450;2022-07-06T11:06:22;2.10;;;0.68;;
36817;SDS011;22761;51.542;16.450;2022-07-06T11:08:55;3.77;;;0.90;;
36817;SDS011;22761;51.542;16.450;2022-07-06T11:14:16;2.22;;;0.70;;
36817;SDS011;22761;51.542;16.450;2022-07-06T11:19:19;2.25;;;0.60;;
36817;SDS011;22761;51.542;16.450;2022-07-06T11:21:50;4.92;;;0.82;;
36817;SDS011;22761;51.542;16.450;2022-07-06T11:24:22;3.42;;;0.68;;
36817;SDS011;22761;51.542;16.450;2022-07-06T11:26:55;4.60;;;1.00;;
36817;SDS011;22761;51.542;16.450;2022-07-06T11:29:24;2.70;;;0.68;;
36817;SDS011;22761;51.542;16.450;2022-07-06T11:31:54;1.10;;;0.78;;
36817;SDS011;22761;51.542;16.450;2022-07-06T11:34:25;2.67;;;0.98;;
36817;SDS011;22761;51.542;16.450;2022-07-06T11:36:55;2.98;;;1.10;;
36817;SDS011;22761;51.542;16.450;2022-07-06T11:39:28;2.67;;;0.80;;
36817;SDS011;22761;51.542;16.450;2022-07-06T11:41:56;2.83;;;1.02;;
36817;SDS011;22761;51.542;16.450;2022-07-06T11:44:24;3.22;;;1.00;;
36817;SDS011;22761;51.542;16.450;2022-07-06T11:46:52;2.05;;;1.07;;
36817;SDS011;22761;51.542;16.450;2022-07-06T11:49:21;2.50;;;0.90;;
36817;SDS011;22761;51.542;16.450;2022-07-06T11:51:48;3.22;;;0.80;;
36817;SDS011;22761;51.542;16.450;2022-07-06T11:54:16;0.90;;;0.60;;
36817;SDS011;22761;51.542;16.450;2022-07-06T11:59:29;1.05;;;0.75;;
36817;SDS011;22761;51.542;16.450;2022-07-06T12:02:05;3.95;;;0.72;;
36817;SDS011;22761;51.542;16.450;2022-07-06T12:07:10;1.07;;;0.65;;
36817;SDS011;22761;51.542;16.450;2022-07-06T12:09:40;2.37;;;0.70;;
36817;SDS011;22761;51.542;16.450;2022-07-06T12:12:10;3.60;;;0.70;;
36817;SDS011;22761;51.542;16.450;2022-07-06T12:14:41;1.67;;;0.70;;
36817;SDS011;22761;51.542;16.450;2022-07-06T12:17:09;2.70;;;1.05;;
36817;SDS011;22761;51.542;16.450;2022-07-06T12:19:38;3.30;;;0.70;;
36817;SDS011;22761;51.542;16.450;2022-07-06T12:22:07;4.30;;;0.80;;
36817;SDS011;22761;51.542;16.450;2022-07-06T12:24:35;3.67;;;0.87;;
36817;SDS011;22761;51.542;16.450;2022-07-06T12:27:15;5.05;;;0.93;;
36817;SDS011;22761;51.542;16.450;2022-07-06T12:29:44;1.25;;;0.70;;
36817;SDS011;22761;51.542;16.450;2022-07-06T12:32:16;2.42;;;0.90;;
36817;SDS011;22761;51.542;16.450;2022-07-06T12:34:46;2.77;;;0.80;;
36817;SDS011;22761;51.542;16.450;2022-07-06T12:37:34;4.30;;;0.78;;
36817;SDS011;22761;51.542;16.450;2022-07-06T12:40:02;3.02;;;0.80;;
36817;SDS011;22761;51.542;16.450;2022-07-06T12:42:33;2.45;;;0.95;;
36817;SDS011;22761;51.542;16.450;2022-07-06T12:45:00;3.52;;;1.15;;
36817;SDS011;22761;51.542;16.450;2022-07-06T12:47:27;5.60;;;1.17;;
36817;SDS011;22761;51.542;16.450;2022-07-06T12:50:07;2.33;;;0.93;;
36817;SDS011;22761;51.542;16.450;2022-07-06T12:52:37;3.45;;;1.10;;
36817;SDS011;22761;51.542;16.450;2022-07-06T12:55:05;1.90;;;0.93;;
36817;SDS011;22761;51.542;16.450;2022-07-06T12:57:45;3.40;;;1.20;;
36817;SDS011;22761;51.542;16.450;2022-07-06T13:00:15;4.90;;;1.20;;
36817;SDS011;22761;51.542;16.450;2022-07-06T13:02:45;3.50;;;1.57;;
36817;SDS011;22761;51.542;16.450;2022-07-06T13:05:14;7.35;;;1.50;;
36817;SDS011;22761;51.542;16.450;2022-07-06T13:07:46;3.67;;;1.20;;
36817;SDS011;22761;51.542;16.450;2022-07-06T13:10:15;3.75;;;1.25;;
36817;SDS011;22761;51.542;16.450;2022-07-06T13:12:42;6.03;;;1.22;;
36817;SDS011;22761;51.542;16.450;2022-07-06T13:15:10;5.20;;;1.32;;
36817;SDS011;22761;51.542;16.450;2022-07-06T13:17:37;5.03;;;1.60;;
36817;SDS011;22761;51.542;16.450;2022-07-06T13:20:05;2.85;;;1.22;;
36817;SDS011;22761;51.542;16.450;2022-07-06T13:22:38;2.65;;;1.10;;
36817;SDS011;22761;51.542;16.450;2022-07-06T13:25:05;3.47;;;1.17;;
36817;SDS011;22761;51.542;16.450;2022-07-06T13:27:33;3.45;;;1.20;;
36817;SDS011;22761;51.542;16.450;2022-07-06T13:30:00;3.33;;;1.02;;
36817;SDS011;22761;51.542;16.450;2022-07-06T13:32:28;3.47;;;1.35;;
36817;SDS011;22761;51.542;16.450;2022-07-06T13:34:55;3.02;;;1.30;;
36817;SDS011;22761;51.542;16.450;2022-07-06T13:37:21;2.37;;;1.30;;
36817;SDS011;22761;51.542;16.450;2022-07-06T13:39:49;4.33;;;1.20;;
36817;SDS011;22761;51.542;16.450;2022-07-06T13:42:16;2.83;;;1.42;;
36817;SDS011;22761;51.542;16.450;2022-07-06T13:44:43;3.52;;;1.12;;
36817;SDS011;22761;51.542;16.450;2022-07-06T13:47:10;3.22;;;1.35;;
36817;SDS011;22761;51.542;16.450;2022-07-06T13:49:37;3.67;;;1.30;;
36817;SDS011;22761;51.542;16.450;2022-07-06T13:52:04;2.90;;;1.30;;
36817;SDS011;22761;51.542;16.450;2022-07-06T13:54:32;3.27;;;1.52;;
36817;SDS011;22761;51.542;16.450;2022-07-06T13:57:05;4.72;;;1.95;;
36817;SDS011;22761;51.542;16.450;2022-07-06T13:59:31;3.52;;;1.17;;
36817;SDS011;22761;51.542;16.450;2022-07-06T14:01:58;3.92;;;1.57;;
36817;SDS011;22761;51.542;16.450;2022-07-06T14:04:25;3.77;;;1.57;;
36817;SDS011;22761;51.542;16.450;2022-07-06T14:06:52;3.80;;;2.20;;
36817;SDS011;22761;51.542;16.450;2022-07-06T14:09:20;5.47;;;1.90;;
36817;SDS011;22761;51.542;16.450;2022-07-06T14:11:47;7.35;;;1.82;;
36817;SDS011;22761;51.542;16.450;2022-07-06T14:14:14;3.17;;;1.98;;
36817;SDS011;22761;51.542;16.450;2022-07-06T14:16:41;3.37;;;1.65;;
36817;SDS011;22761;51.542;16.450;2022-07-06T14:19:08;2.55;;;1.55;;
36817;SDS011;22761;51.542;16.450;2022-07-06T14:21:35;8.53;;;2.10;;
36817;SDS011;22761;51.542;16.450;2022-07-06T14:24:03;3.17;;;1.40;;
36817;SDS011;22761;51.542;16.450;2022-07-06T14:26:30;3.80;;;1.30;;
36817;SDS011;22761;51.542;16.450;2022-07-06T14:28:58;5.47;;;1.37;;
36817;SDS011;22761;51.542;16.450;2022-07-06T14:31:25;3.98;;;1.32;;
36817;SDS011;22761;51.542;16.450;2022-07-06T14:33:52;5.42;;;1.30;;
36817;SDS011;22761;51.542;16.450;2022-07-06T14:36:19;4.28;;;1.67;;
36817;SDS011;22761;51.542;16.450;2022-07-06T14:38:46;3.15;;;1.37;;
36817;SDS011;22761;51.542;16.450;2022-07-06T14:41:13;2.87;;;1.37;;
36817;SDS011;22761;51.542;16.450;2022-07-06T14:43:40;3.17;;;1.60;;
36817;SDS011;22761;51.542;16.450;2022-07-06T14:46:08;3.80;;;1.40;;
36817;SDS011;22761;51.542;16.450;2022-07-06T14:48:35;4.62;;;1.50;;
36817;SDS011;22761;51.542;16.450;2022-07-06T14:51:02;3.58;;;1.32;;
36817;SDS011;22761;51.542;16.450;2022-07-06T14:53:29;2.22;;;1.12;;
36817;SDS011;22761;51.542;16.450;2022-07-06T14:55:56;4.50;;;1.50;;
36817;SDS011;22761;51.542;16.450;2022-07-06T14:58:24;3.02;;;1.22;;
36817;SDS011;22761;51.542;16.450;2022-07-06T15:00:51;3.58;;;1.10;;
36817;SDS011;22761;51.542;16.450;2022-07-06T15:03:18;3.50;;;1.30;;
36817;SDS011;22761;51.542;16.450;2022-07-06T15:05:45;3.10;;;1.12;;
36817;SDS011;22761;51.542;16.450;2022-07-06T15:08:14;3.10;;;0.95;;